createdAt,value
2019-03-27T00:01:40.549Z,5.20
2019-03-27T00:04:11.829Z,5.10
2019-03-27T00:06:43.059Z,5.10
2019-03-27T00:09:14.336Z,5.00
2019-03-27T00:11:45.466Z,5.00
2019-03-27T00:14:16.752Z,5.00
2019-03-27T00:16:48.001Z,4.90
2019-03-27T00:19:19.274Z,4.90
2019-03-27T00:21:50.587Z,4.80
2019-03-27T00:24:21.767Z,4.70
2019-03-27T00:26:52.980Z,4.70
2019-03-27T00:29:24.217Z,4.60
2019-03-27T00:31:55.530Z,4.60
2019-03-27T00:34:26.747Z,4.50
2019-03-27T00:36:58.049Z,4.40
2019-03-27T00:39:29.354Z,4.40
2019-03-27T00:42:00.454Z,4.40
2019-03-27T00:44:31.714Z,4.30
2019-03-27T00:47:02.965Z,4.40
2019-03-27T00:49:34.288Z,4.30
2019-03-27T00:52:05.513Z,4.20
2019-03-27T00:54:36.714Z,4.10
2019-03-27T00:57:07.954Z,4.20
2019-03-27T00:59:39.204Z,4.20
2019-03-27T01:02:10.511Z,4.20
2019-03-27T01:04:41.784Z,4.10
2019-03-27T01:07:13.038Z,4.10
2019-03-27T01:09:44.341Z,4.10
2019-03-27T01:12:15.721Z,4.10
2019-03-27T01:14:47.290Z,4.00
2019-03-27T01:17:18.595Z,4.00
2019-03-27T01:19:49.865Z,4.00
2019-03-27T01:22:21.100Z,4.00
2019-03-27T01:24:52.269Z,4.00
2019-03-27T01:27:23.517Z,4.00
2019-03-27T01:29:54.787Z,4.00
2019-03-27T01:32:25.986Z,4.00
2019-03-27T01:34:57.337Z,4.00
2019-03-27T01:37:28.607Z,4.00
2019-03-27T01:39:59.825Z,3.90
2019-03-27T01:42:31.141Z,3.90
2019-03-27T01:45:02.318Z,3.90
2019-03-27T01:47:33.608Z,3.90
2019-03-27T01:50:05.299Z,3.80
2019-03-27T01:52:36.646Z,3.90
2019-03-27T01:55:08.139Z,3.90
2019-03-27T01:57:39.409Z,3.80
2019-03-27T02:00:11.304Z,3.80
2019-03-27T02:02:42.557Z,3.90
2019-03-27T02:05:13.863Z,3.80
2019-03-27T02:07:45.156Z,3.80
2019-03-27T02:10:16.818Z,3.90
2019-03-27T02:12:48.098Z,3.90
2019-03-27T02:15:19.448Z,3.90
2019-03-27T02:17:50.714Z,3.90
2019-03-27T02:20:22.114Z,3.90
2019-03-27T02:22:53.395Z,3.90
2019-03-27T02:25:24.763Z,4.00
2019-03-27T02:27:55.982Z,3.90
2019-03-27T02:30:27.360Z,3.90
2019-03-27T02:32:58.656Z,3.90
2019-03-27T02:35:30.185Z,3.90
2019-03-27T02:38:01.513Z,3.80
2019-03-27T02:40:32.622Z,3.90
2019-03-27T02:43:03.889Z,3.90
2019-03-27T02:45:35.044Z,3.80
2019-03-27T02:48:06.244Z,3.80
2019-03-27T02:50:37.493Z,3.80
2019-03-27T02:53:08.787Z,3.80
2019-03-27T02:55:40.087Z,3.80
2019-03-27T02:58:11.434Z,3.70
2019-03-27T03:00:42.841Z,3.60
2019-03-27T03:03:14.002Z,3.60
2019-03-27T03:05:45.294Z,3.70
2019-03-27T03:08:16.533Z,3.70
2019-03-27T03:10:47.775Z,3.70
2019-03-27T03:13:19.024Z,3.70
2019-03-27T03:15:50.249Z,3.60
2019-03-27T03:18:21.583Z,3.60
2019-03-27T03:20:52.783Z,3.70
2019-03-27T03:23:24.030Z,3.60
2019-03-27T03:25:55.241Z,3.60
2019-03-27T03:28:26.521Z,3.70
2019-03-27T03:30:57.831Z,3.70
2019-03-27T03:33:28.997Z,3.60
2019-03-27T03:36:00.263Z,3.70
2019-03-27T03:38:31.473Z,3.70
2019-03-27T03:41:02.785Z,3.70
2019-03-27T03:43:34.023Z,3.70
2019-03-27T03:46:05.291Z,3.70
2019-03-27T03:48:36.503Z,3.80
2019-03-27T03:51:08.624Z,3.80
2019-03-27T03:53:39.995Z,3.80
2019-03-27T03:56:12.387Z,3.80
2019-03-27T03:58:44.250Z,3.70
2019-03-27T04:01:16.864Z,3.70
2019-03-27T04:03:50.706Z,3.70
2019-03-27T04:06:21.874Z,3.60
2019-03-27T04:08:53.120Z,3.60
2019-03-27T04:11:24.389Z,3.60
2019-03-27T04:13:55.640Z,3.60
2019-03-27T04:16:26.911Z,3.60
2019-03-27T04:18:58.217Z,3.60
2019-03-27T04:21:29.484Z,3.60
2019-03-27T04:24:00.721Z,3.50
2019-03-27T04:26:33.522Z,3.50
2019-03-27T04:29:05.009Z,3.40
2019-03-27T04:31:36.349Z,3.40
2019-03-27T04:34:07.644Z,3.40
2019-03-27T04:36:39.215Z,3.50
2019-03-27T04:39:10.857Z,3.50
2019-03-27T04:41:42.729Z,3.50
2019-03-27T04:44:14.207Z,3.40
2019-03-27T04:46:45.778Z,3.50
2019-03-27T04:49:17.467Z,3.40
2019-03-27T04:51:49.073Z,3.40
2019-03-27T04:54:20.763Z,3.40
2019-03-27T04:56:52.327Z,3.40
2019-03-27T04:59:24.526Z,3.50
2019-03-27T05:01:55.842Z,3.40
2019-03-27T05:04:29.431Z,3.40
2019-03-27T05:07:01.215Z,3.50
2019-03-27T05:09:32.792Z,3.50
2019-03-27T05:12:04.414Z,3.50
2019-03-27T05:14:35.852Z,3.50
2019-03-27T05:17:09.197Z,3.50
2019-03-27T05:19:40.826Z,3.50
2019-03-27T05:22:12.362Z,3.50
2019-03-27T05:24:45.675Z,3.50
2019-03-27T05:27:17.299Z,3.50
2019-03-27T05:29:48.768Z,3.50
2019-03-27T05:32:20.177Z,3.50
2019-03-27T05:34:51.840Z,3.50
2019-03-27T05:37:23.106Z,3.60
2019-03-27T05:39:54.403Z,3.60
2019-03-27T05:42:25.695Z,3.60
2019-03-27T05:44:56.875Z,3.70
2019-03-27T05:47:28.157Z,3.70
2019-03-27T05:49:59.466Z,3.80
2019-03-27T05:52:30.788Z,3.80
2019-03-27T05:55:02.071Z,3.80
2019-03-27T05:57:33.286Z,3.80
2019-03-27T06:00:04.754Z,3.80
2019-03-27T06:02:36.004Z,3.90
2019-03-27T06:05:07.435Z,4.00
2019-03-27T06:07:38.655Z,4.00
2019-03-27T06:10:09.928Z,4.00
2019-03-27T06:12:41.194Z,4.00
2019-03-27T06:15:12.510Z,4.00
2019-03-27T06:17:43.733Z,4.00
2019-03-27T06:20:15.013Z,4.00
2019-03-27T06:22:46.354Z,3.90
2019-03-27T06:25:17.622Z,4.00
2019-03-27T06:27:48.862Z,4.00
2019-03-27T06:30:20.091Z,4.10
2019-03-27T06:32:51.355Z,4.20
2019-03-27T06:35:22.670Z,4.20
2019-03-27T06:37:53.946Z,4.20
2019-03-27T06:40:25.210Z,4.30
2019-03-27T06:42:56.523Z,4.30
2019-03-27T06:45:27.684Z,4.40
2019-03-27T06:47:58.963Z,4.60
2019-03-27T06:50:30.240Z,4.70
2019-03-27T06:53:01.368Z,4.80
2019-03-27T06:55:32.706Z,4.80
2019-03-27T06:58:53.875Z,4.90
2019-03-27T07:01:14.526Z,5.00
2019-03-27T07:03:45.826Z,5.10
2019-03-27T07:06:17.097Z,5.30
2019-03-27T07:08:48.440Z,5.40
2019-03-27T07:11:19.710Z,5.30
2019-03-27T07:13:50.906Z,5.40
2019-03-27T07:16:22.246Z,5.40
2019-03-27T07:18:53.563Z,5.40
2019-03-27T07:21:24.885Z,5.40
2019-03-27T07:23:56.116Z,5.40
2019-03-27T07:26:27.309Z,5.40
2019-03-27T07:28:58.506Z,5.60
2019-03-27T07:31:29.762Z,5.60
2019-03-27T07:34:01.000Z,5.50
2019-03-27T07:36:32.272Z,5.50
2019-03-27T07:39:10.956Z,5.50
2019-03-27T07:41:37.638Z,5.60
2019-03-27T07:44:08.929Z,5.70
2019-03-27T07:46:40.212Z,5.80
2019-03-27T07:49:11.457Z,5.70
2019-03-27T07:51:42.768Z,5.80
2019-03-27T07:54:14.010Z,6.10
2019-03-27T07:56:45.262Z,6.30
2019-03-27T07:59:16.466Z,6.40
2019-03-27T08:01:47.753Z,6.60
2019-03-27T08:04:19.408Z,6.80
2019-03-27T08:06:50.624Z,6.80
2019-03-27T08:09:23.146Z,6.80
2019-03-27T08:11:54.575Z,6.70
2019-03-27T08:14:25.748Z,6.70
2019-03-27T08:16:57.066Z,6.60
2019-03-27T08:19:28.309Z,6.70
2019-03-27T08:21:59.616Z,7.00
2019-03-27T08:24:30.856Z,7.20
2019-03-27T08:27:02.060Z,7.40
2019-03-27T08:29:33.318Z,7.60
2019-03-27T08:32:04.515Z,7.60
2019-03-27T08:34:35.723Z,7.40
2019-03-27T08:37:07.114Z,7.40
2019-03-27T08:39:38.337Z,7.60
2019-03-27T08:42:09.671Z,7.70
2019-03-27T08:44:40.759Z,8.00
2019-03-27T08:47:12.057Z,8.10
2019-03-27T08:49:43.358Z,8.30
2019-03-27T08:52:14.626Z,8.40
2019-03-27T08:54:45.881Z,8.60
2019-03-27T08:57:17.017Z,8.60
2019-03-27T08:59:48.231Z,8.80
2019-03-27T09:02:19.560Z,8.70
2019-03-27T09:04:52.910Z,8.40
2019-03-27T09:07:24.189Z,8.70
2019-03-27T09:09:55.492Z,8.60
2019-03-27T09:12:26.804Z,9.00
2019-03-27T09:14:58.018Z,9.20
2019-03-27T09:17:29.262Z,9.20
2019-03-27T09:20:00.522Z,9.20
2019-03-27T09:22:31.673Z,9.20
2019-03-27T09:25:02.908Z,8.80
2019-03-27T09:27:34.132Z,8.80
2019-03-27T09:30:07.639Z,8.70
2019-03-27T09:32:38.999Z,8.70
2019-03-27T09:35:10.429Z,8.70
2019-03-27T09:37:41.743Z,8.60
2019-03-27T09:40:13.533Z,8.50
2019-03-27T09:42:44.774Z,8.60
2019-03-27T09:45:16.602Z,8.70
2019-03-27T09:47:47.933Z,8.90
2019-03-27T09:50:19.147Z,9.10
2019-03-27T09:52:50.331Z,9.40
2019-03-27T09:55:21.558Z,9.70
2019-03-27T09:57:52.830Z,10.00
2019-03-27T10:01:11.837Z,10.10
2019-03-27T10:03:43.017Z,10.30
2019-03-27T10:06:14.274Z,10.50
2019-03-27T10:08:45.521Z,10.70
2019-03-27T10:11:16.783Z,11.10
2019-03-27T10:13:48.059Z,10.50
2019-03-27T10:16:19.207Z,10.40
2019-03-27T10:18:50.539Z,10.60
2019-03-27T10:21:22.085Z,10.60
2019-03-27T10:23:53.362Z,10.80
2019-03-27T10:26:24.501Z,10.70
2019-03-27T10:28:55.845Z,10.60
2019-03-27T10:31:27.026Z,10.30
2019-03-27T10:33:58.256Z,10.20
2019-03-27T10:36:29.485Z,10.00
2019-03-27T10:39:00.851Z,10.00
2019-03-27T10:41:32.167Z,10.00
2019-03-27T10:44:03.500Z,9.90
2019-03-27T10:46:34.780Z,10.00
2019-03-27T10:49:06.049Z,10.10
2019-03-27T10:51:37.341Z,10.20
2019-03-27T10:54:08.769Z,10.20
2019-03-27T10:56:40.095Z,10.20
2019-03-27T10:59:11.373Z,10.20
2019-03-27T11:01:42.568Z,10.10
2019-03-27T11:04:14.004Z,10.10
2019-03-27T11:06:45.245Z,10.20
2019-03-27T11:09:16.675Z,10.10
2019-03-27T11:11:47.860Z,10.30
2019-03-27T11:14:19.220Z,10.70
2019-03-27T11:16:50.489Z,11.10
2019-03-27T11:19:21.722Z,11.40
2019-03-27T11:21:53.829Z,11.60
2019-03-27T11:24:24.953Z,11.60
2019-03-27T11:26:56.280Z,11.40
2019-03-27T11:29:27.515Z,11.10
2019-03-27T11:31:58.787Z,11.00
2019-03-27T11:34:29.983Z,10.90
2019-03-27T11:37:01.287Z,11.00
2019-03-27T11:39:32.494Z,11.30
2019-03-27T11:42:03.726Z,11.60
2019-03-27T11:44:34.948Z,11.90
2019-03-27T11:47:06.213Z,12.50
2019-03-27T11:49:37.484Z,12.70
2019-03-27T11:52:08.850Z,13.00
2019-03-27T11:54:40.056Z,12.60
2019-03-27T11:57:11.327Z,12.40
2019-03-27T11:59:53.247Z,12.40
2019-03-27T12:02:15.434Z,12.10
2019-03-27T12:04:46.614Z,11.90
2019-03-27T12:07:17.941Z,11.80
2019-03-27T12:09:49.176Z,11.80
2019-03-27T12:12:20.422Z,12.20
2019-03-27T12:14:51.718Z,14.00
2019-03-27T12:17:23.010Z,15.10
2019-03-27T12:19:57.223Z,16.40
2019-03-27T12:22:28.556Z,17.30
2019-03-27T12:24:59.848Z,17.60
2019-03-27T12:27:31.138Z,18.40
2019-03-27T12:30:02.481Z,17.00
2019-03-27T12:32:33.789Z,16.00
2019-03-27T12:35:05.312Z,14.90
2019-03-27T12:37:37.373Z,13.90
2019-03-27T12:40:11.944Z,13.10
2019-03-27T12:42:41.902Z,12.30
2019-03-27T12:45:13.352Z,11.50
2019-03-27T12:47:44.605Z,11.10
2019-03-27T12:50:16.472Z,10.50
2019-03-27T12:52:47.822Z,10.00
2019-03-27T12:55:19.027Z,9.70
2019-03-27T12:57:50.297Z,9.60
2019-03-27T13:00:21.815Z,9.60
2019-03-27T13:02:53.139Z,9.10
2019-03-27T13:05:24.373Z,9.20
2019-03-27T13:07:55.623Z,9.20
2019-03-27T13:10:26.752Z,9.40
2019-03-27T13:12:58.114Z,9.50
2019-03-27T13:15:29.389Z,9.60
2019-03-27T13:18:00.703Z,9.90
2019-03-27T13:20:31.993Z,10.10
2019-03-27T13:23:03.221Z,10.20
2019-03-27T13:25:34.665Z,10.20
2019-03-27T13:28:05.892Z,9.90
2019-03-27T13:30:37.140Z,10.20
2019-03-27T13:33:08.375Z,10.30
2019-03-27T13:35:39.740Z,10.30
2019-03-27T13:38:10.960Z,10.20
2019-03-27T13:40:42.196Z,10.20
2019-03-27T13:43:13.461Z,10.30
2019-03-27T13:45:44.785Z,10.30
2019-03-27T13:48:16.039Z,10.10
2019-03-27T13:50:47.295Z,10.00
2019-03-27T13:53:18.581Z,9.80
2019-03-27T13:55:49.790Z,9.70
2019-03-27T13:58:21.091Z,9.60
2019-03-27T14:00:52.319Z,9.50
2019-03-27T14:03:23.581Z,9.60
2019-03-27T14:05:54.861Z,9.50
2019-03-27T14:08:26.130Z,9.50
2019-03-27T14:10:57.497Z,9.40
2019-03-27T14:13:28.728Z,9.30
2019-03-27T14:16:00.090Z,9.30
2019-03-27T14:18:31.382Z,9.20
2019-03-27T14:21:02.926Z,9.30
2019-03-27T14:23:34.244Z,9.40
2019-03-27T14:26:05.440Z,9.50
2019-03-27T14:28:36.696Z,9.50
2019-03-27T14:31:07.957Z,9.60
2019-03-27T14:33:39.178Z,9.60
2019-03-27T14:36:10.481Z,9.60
2019-03-27T14:38:41.772Z,9.60
2019-03-27T14:41:13.100Z,9.50
2019-03-27T14:43:44.376Z,9.50
2019-03-27T14:46:15.665Z,9.50
2019-03-27T14:48:46.857Z,9.60
2019-03-27T14:51:18.122Z,9.60
2019-03-27T14:53:49.307Z,9.60
2019-03-27T14:56:20.677Z,9.60
2019-03-27T14:58:51.978Z,9.70
2019-03-27T15:01:23.320Z,9.70
2019-03-27T15:03:54.580Z,9.80
2019-03-27T15:06:25.907Z,9.90
2019-03-27T15:08:57.210Z,9.70
2019-03-27T15:11:28.458Z,9.70
2019-03-27T15:13:59.745Z,9.60
2019-03-27T15:16:30.965Z,9.70
2019-03-27T15:19:02.285Z,9.60
2019-03-27T15:21:33.510Z,9.60
2019-03-27T15:24:04.780Z,9.60
2019-03-27T15:26:36.007Z,9.60
2019-03-27T15:29:07.245Z,9.60
2019-03-27T15:31:38.457Z,9.50
2019-03-27T15:34:09.610Z,9.50
2019-03-27T15:36:40.807Z,9.60
2019-03-27T15:39:11.928Z,9.50
2019-03-27T15:41:44.108Z,9.50
2019-03-27T15:44:15.390Z,9.40
2019-03-27T15:46:46.689Z,9.40
2019-03-27T15:49:17.976Z,9.40
2019-03-27T15:51:49.299Z,9.30
2019-03-27T15:54:20.615Z,9.10
2019-03-27T15:56:51.936Z,9.00
2019-03-27T15:59:23.196Z,8.90
2019-03-27T16:01:57.741Z,8.80
2019-03-27T16:04:27.499Z,8.80
2019-03-27T16:06:58.866Z,8.80
2019-03-27T16:09:30.127Z,8.70
2019-03-27T16:12:01.463Z,8.70
2019-03-27T16:14:32.670Z,8.70
2019-03-27T16:17:13.091Z,8.60
2019-03-27T16:19:36.902Z,8.50
2019-03-27T16:22:08.690Z,8.50
2019-03-27T16:24:39.950Z,8.50
2019-03-27T16:27:11.168Z,8.40
2019-03-27T16:29:42.439Z,8.40
2019-03-27T16:32:13.529Z,8.30
2019-03-27T16:34:44.760Z,8.30
2019-03-27T16:37:15.943Z,8.20
2019-03-27T16:39:47.181Z,8.20
2019-03-27T16:42:18.417Z,8.20
2019-03-27T16:44:49.682Z,8.10
2019-03-27T16:47:20.941Z,8.10
2019-03-27T16:49:52.053Z,8.10
2019-03-27T16:52:23.377Z,8.00
2019-03-27T16:54:54.750Z,8.10
2019-03-27T16:57:25.909Z,8.00
2019-03-27T16:59:57.130Z,8.00
2019-03-27T17:02:28.236Z,7.90
2019-03-27T17:04:59.314Z,8.00
2019-03-27T17:07:30.575Z,8.00
2019-03-27T17:10:01.834Z,8.00
2019-03-27T17:12:33.076Z,7.90
2019-03-27T17:15:04.972Z,7.90
2019-03-27T17:17:36.331Z,7.80
2019-03-27T17:20:08.449Z,7.90
2019-03-27T17:22:39.621Z,7.90
2019-03-27T17:25:10.925Z,7.70
2019-03-27T17:27:42.049Z,7.60
2019-03-27T17:30:14.288Z,7.60
2019-03-27T17:32:45.510Z,7.60
2019-03-27T17:35:16.746Z,7.50
2019-03-27T17:37:47.996Z,7.50
2019-03-27T17:40:19.170Z,7.40
2019-03-27T17:42:50.407Z,7.40
2019-03-27T17:45:21.625Z,7.40
2019-03-27T17:47:52.854Z,7.30
2019-03-27T17:50:24.142Z,7.30
2019-03-27T17:52:55.317Z,7.20
2019-03-27T17:55:26.665Z,7.20
2019-03-27T17:57:57.944Z,7.10
2019-03-27T18:00:51.962Z,7.20
2019-03-27T18:03:23.334Z,7.20
2019-03-27T18:05:56.664Z,7.00
2019-03-27T18:08:27.883Z,7.00
2019-03-27T18:10:59.053Z,7.00
2019-03-27T18:13:30.352Z,6.80
2019-03-27T18:16:01.643Z,6.80
2019-03-27T18:18:32.791Z,6.90
2019-03-27T18:21:04.059Z,6.80
2019-03-27T18:23:45.967Z,6.80
2019-03-27T18:26:09.317Z,6.80
2019-03-27T18:28:40.622Z,6.90
2019-03-27T18:31:11.769Z,7.00
2019-03-27T18:33:43.103Z,7.00
2019-03-27T18:36:14.378Z,6.90
2019-03-27T18:38:46.113Z,6.80
2019-03-27T18:41:17.492Z,6.70
2019-03-27T18:43:48.813Z,6.70
2019-03-27T18:46:20.143Z,6.60
2019-03-27T18:48:51.410Z,6.60
2019-03-27T18:51:22.657Z,6.60
2019-03-27T18:53:59.444Z,6.70
2019-03-27T18:56:27.047Z,6.80
2019-03-27T18:58:58.320Z,6.80
2019-03-27T19:01:29.483Z,6.80
2019-03-27T19:04:00.754Z,6.80
2019-03-27T19:06:32.018Z,6.70
2019-03-27T19:09:03.240Z,6.70
2019-03-27T19:11:34.467Z,6.70
2019-03-27T19:14:14.206Z,6.80
2019-03-27T19:16:45.568Z,6.80
2019-03-27T19:19:16.972Z,6.60
2019-03-27T19:21:48.255Z,6.60
2019-03-27T19:24:19.446Z,6.70
2019-03-27T19:26:50.698Z,6.80
2019-03-27T19:29:21.908Z,6.80
2019-03-27T19:31:53.089Z,6.70
2019-03-27T19:34:24.374Z,6.60
2019-03-27T19:36:55.721Z,6.40
2019-03-27T19:39:26.980Z,6.50
2019-03-27T19:42:00.180Z,6.70
2019-03-27T19:44:31.548Z,6.70
2019-03-27T19:47:02.882Z,6.60
2019-03-27T19:49:34.225Z,6.70
2019-03-27T19:52:05.323Z,6.80
2019-03-27T19:54:36.667Z,6.80
2019-03-27T19:57:09.590Z,6.80
2019-03-27T19:59:40.823Z,6.90
2019-03-27T20:02:13.095Z,6.70
2019-03-27T20:04:44.411Z,6.80
2019-03-27T20:07:15.609Z,6.80
2019-03-27T20:09:47.222Z,6.70
2019-03-27T20:12:18.475Z,6.70
2019-03-27T20:14:49.735Z,6.70
2019-03-27T20:17:20.990Z,6.70
2019-03-27T20:19:52.239Z,6.80
2019-03-27T20:22:23.644Z,6.80
2019-03-27T20:24:54.844Z,6.70
2019-03-27T20:27:26.081Z,6.80
2019-03-27T20:29:57.213Z,6.70
2019-03-27T20:32:29.422Z,6.70
2019-03-27T20:35:00.719Z,6.70
2019-03-27T20:37:32.027Z,6.60
2019-03-27T20:40:03.226Z,6.40
2019-03-27T20:42:34.500Z,6.30
2019-03-27T20:45:06.280Z,6.30
2019-03-27T20:47:40.361Z,6.40
2019-03-27T20:50:11.899Z,6.40
2019-03-27T20:52:43.194Z,6.30
2019-03-27T20:55:14.582Z,6.30
2019-03-27T20:57:45.711Z,6.30
2019-03-27T21:00:17.525Z,6.20
2019-03-27T21:02:48.854Z,6.20
2019-03-27T21:05:20.136Z,6.10
2019-03-27T21:07:51.406Z,6.10
2019-03-27T21:10:22.661Z,6.10
2019-03-27T21:12:54.114Z,6.00
2019-03-27T21:15:25.335Z,6.00
2019-03-27T21:17:56.642Z,6.00
2019-03-27T21:20:28.023Z,6.10
2019-03-27T21:22:59.288Z,6.00
2019-03-27T21:25:30.608Z,5.90
2019-03-27T21:28:01.913Z,6.00
2019-03-27T21:30:33.096Z,6.10
2019-03-27T21:33:04.259Z,6.10
2019-03-27T21:35:35.658Z,6.10
2019-03-27T21:38:07.120Z,6.10
2019-03-27T21:40:38.512Z,6.20
2019-03-27T21:43:09.779Z,6.20
2019-03-27T21:45:41.032Z,6.20
2019-03-27T21:48:12.253Z,6.00
2019-03-27T21:50:43.501Z,6.00
2019-03-27T21:53:14.818Z,6.00
2019-03-27T21:55:46.035Z,6.00
2019-03-27T21:58:17.415Z,5.90
2019-03-27T22:00:48.636Z,5.80
2019-03-27T22:03:19.828Z,5.70
2019-03-27T22:05:51.100Z,5.70
2019-03-27T22:08:22.349Z,5.60
2019-03-27T22:10:53.604Z,5.70
2019-03-27T22:13:24.912Z,5.70
2019-03-27T22:15:56.124Z,5.80
2019-03-27T22:18:27.361Z,5.70
2019-03-27T22:20:58.493Z,5.60
2019-03-27T22:23:29.883Z,5.60
2019-03-27T22:26:01.149Z,5.60
2019-03-27T22:28:32.394Z,5.50
2019-03-27T22:31:03.533Z,5.60
2019-03-27T22:33:34.767Z,5.60
2019-03-27T22:36:06.029Z,5.60
2019-03-27T22:38:38.331Z,5.70
2019-03-27T22:41:10.428Z,5.80
2019-03-27T22:43:41.731Z,5.90
2019-03-27T22:46:13.004Z,5.70
2019-03-27T22:48:44.268Z,5.70
2019-03-27T22:51:15.522Z,5.60
2019-03-27T22:53:46.862Z,5.60
2019-03-27T22:56:18.191Z,5.40
2019-03-27T22:58:49.813Z,5.50
2019-03-27T23:01:21.156Z,5.40
2019-03-27T23:03:52.416Z,5.40
2019-03-27T23:06:23.625Z,5.40
2019-03-27T23:08:55.007Z,5.40
2019-03-27T23:11:26.574Z,5.50
2019-03-27T23:13:57.831Z,5.60
2019-03-27T23:16:29.109Z,5.60
2019-03-27T23:19:00.433Z,5.70
2019-03-27T23:21:31.721Z,5.70
2019-03-27T23:24:02.976Z,5.60
2019-03-27T23:26:34.145Z,5.60
2019-03-27T23:29:05.370Z,5.60
2019-03-27T23:31:36.642Z,5.70
2019-03-27T23:34:07.901Z,5.70
2019-03-27T23:36:39.137Z,5.70
2019-03-27T23:39:10.991Z,5.60
2019-03-27T23:41:42.690Z,5.50
2019-03-27T23:44:14.174Z,5.50
2019-03-27T23:46:45.525Z,5.60
2019-03-27T23:49:16.792Z,5.60
2019-03-27T23:51:48.136Z,5.70
2019-03-27T23:54:19.505Z,5.70
2019-03-27T23:56:50.988Z,5.70
2019-03-27T23:59:22.164Z,5.70
